ETH515 DXXX-HAAB
Flight info
| Callsign | ETH515 |
|---|---|
| Flight time | N/A |
| Altitude | 33000 |
| Route | MONOS2S MONOS UL433 LAG UQ200 AKLIS/N0472F350 UQ200 TITAS DCT ASKON L558 DASTU UT139 BRO BRO1A |
| Aircraft | B38M/M-SDE1FGHILORVWXY/HB1 |
Departure
| Time | N/A |
|---|---|
| Airport | Lomé–Tokoin International Airport (DXXX) |
Arrival
| Time | 2026-05-03 23:31 |
|---|---|
| Airport | Addis Ababa Bole International Airport (HAAB) |
| Time | Latitude | Longitude | Altitude | Speed | Heading |
|---|---|---|---|---|---|
| 2026-05-03 23:24 | 9.10091 | 39.01215 | 10602 ft | 228 kts | 328° |
| 2026-05-03 23:25 | 9.11263 | 39.00142 | 10647 ft | 229 kts | 309° |
| 2026-05-03 23:25 | 9.12053 | 38.98743 | 10642 ft | 231 kts | 291° |
| 2026-05-03 23:25 | 9.12375 | 38.97152 | 10648 ft | 232 kts | 273° |
| 2026-05-03 23:25 | 9.12278 | 38.95528 | 10672 ft | 233 kts | 264° |
| 2026-05-03 23:26 | 9.11899 | 38.93941 | 10661 ft | 231 kts | 247° |
| 2026-05-03 23:26 | 9.11068 | 38.92573 | 10666 ft | 227 kts | 229° |
| 2026-05-03 23:26 | 9.09879 | 38.91554 | 10616 ft | 224 kts | 211° |
| 2026-05-03 23:26 | 9.08496 | 38.90827 | 10383 ft | 222 kts | 204° |
| 2026-05-03 23:27 | 9.07039 | 38.90393 | 10112 ft | 215 kts | 185° |
| 2026-05-03 23:27 | 9.05618 | 38.90469 | 9859 ft | 195 kts | 164° |
| 2026-05-03 23:27 | 9.04461 | 38.91002 | 9690 ft | 172 kts | 141° |
| 2026-05-03 23:27 | 9.03558 | 38.91773 | 9651 ft | 170 kts | 144° |
| 2026-05-03 23:28 | 9.02425 | 38.92063 | 9584 ft | 172 kts | 184° |
| 2026-05-03 23:28 | 9.01348 | 38.91570 | 9533 ft | 173 kts | 224° |
| 2026-05-03 23:28 | 9.00726 | 38.90545 | 9452 ft | 173 kts | 251° |
| 2026-05-03 23:28 | 9.00408 | 38.89393 | 9317 ft | 172 kts | 258° |
| 2026-05-03 23:29 | 9.00108 | 38.88224 | 9130 ft | 171 kts | 255° |
| 2026-05-03 23:29 | 8.99770 | 38.87077 | 8953 ft | 170 kts | 254° |
| 2026-05-03 23:29 | 8.99438 | 38.85937 | 8764 ft | 167 kts | 255° |
| 2026-05-03 23:29 | 8.99116 | 38.84819 | 8508 ft | 164 kts | 246° |
| 2026-05-03 23:30 | 8.98807 | 38.83722 | 8059 ft | 160 kts | 255° |
| 2026-05-03 23:30 | 8.98534 | 38.82655 | 7766 ft | 155 kts | 253° |
| 2026-05-03 23:30 | 8.98206 | 38.81616 | 7673 ft | 155 kts | 252° |
| 2026-05-03 23:30 | 8.97900 | 38.80611 | 7623 ft | 138 kts | 255° |
| 2026-05-03 23:31 | 8.97699 | 38.79977 | 7621 ft | 58 kts | 253° |
| 2026-05-03 23:31 | 8.97601 | 38.79613 | 7618 ft | 52 kts | 256° |
| 2026-05-03 23:31 | 8.97519 | 38.79351 | 7618 ft | 30 kts | 253° |
| 2026-05-03 23:31 | 8.97486 | 38.79155 | 7618 ft | 26 kts | 285° |
| 2026-05-03 23:32 | 8.97525 | 38.79013 | 7619 ft | 18 kts | 285° |
| 2026-05-03 23:32 | 8.97564 | 38.78929 | 7622 ft | 7 kts | 332° |
| 2026-05-03 23:32 | 8.97579 | 38.78888 | 7622 ft | 7 kts | 272° |
| 2026-05-03 23:32 | 8.97584 | 38.78833 | 7623 ft | 8 kts | 294° |
| 2026-05-03 23:33 | 8.97646 | 38.78795 | 7621 ft | 16 kts | 336° |
| 2026-05-03 23:33 | 8.97789 | 38.78754 | 7619 ft | 27 kts | 345° |
| 2026-05-03 23:33 | 8.97942 | 38.78733 | 7618 ft | 12 kts | 48° |
| 2026-05-03 23:33 | 8.97949 | 38.78835 | 7618 ft | 20 kts | 94° |
| 2026-05-03 23:34 | 8.97946 | 38.78990 | 7618 ft | 17 kts | 75° |
| 2026-05-03 23:34 | 8.97985 | 38.79111 | 7617 ft | 19 kts | 76° |
| 2026-05-03 23:34 | 8.98025 | 38.79233 | 7617 ft | 4 kts | 47° |
| 2026-05-03 23:34 | 8.98042 | 38.79238 | 7617 ft | 2 kts | 354° |
| 2026-05-03 23:35 | 8.98061 | 38.79232 | 7617 ft | 4 kts | 343° |
| 2026-05-03 23:35 | 8.98089 | 38.79224 | 7617 ft | 0 kts | 342° |
| 2026-05-03 23:35 | 8.98093 | 38.79222 | 7617 ft | 1 kts | 342° |
| 2026-05-03 23:35 | 8.98094 | 38.79222 | 7617 ft | 0 kts | 342° |